sensor_id;sensor_type;location;lat;lon;timestamp;P1;durP1;ratioP1;P2;durP2;ratioP2
33644;SDS011;19986;48.190;16.366;2023-04-21T00:01:04;56.53;;;52.42;;
33644;SDS011;19986;48.190;16.366;2023-04-21T00:03:33;56.90;;;52.63;;
33644;SDS011;19986;48.190;16.366;2023-04-21T00:06:02;56.97;;;52.75;;
33644;SDS011;19986;48.190;16.366;2023-04-21T00:08:30;57.78;;;53.65;;
33644;SDS011;19986;48.190;16.366;2023-04-21T00:10:56;60.30;;;56.17;;
33644;SDS011;19986;48.190;16.366;2023-04-21T00:13:22;58.55;;;54.53;;
33644;SDS011;19986;48.190;16.366;2023-04-21T00:15:48;57.33;;;53.45;;
33644;SDS011;19986;48.190;16.366;2023-04-21T00:18:15;58.47;;;54.08;;
33644;SDS011;19986;48.190;16.366;2023-04-21T00:20:42;59.00;;;54.65;;
33644;SDS011;19986;48.190;16.366;2023-04-21T00:23:09;57.40;;;53.45;;
33644;SDS011;19986;48.190;16.366;2023-04-21T00:25:35;57.15;;;53.20;;
33644;SDS011;19986;48.190;16.366;2023-04-21T00:28:01;58.03;;;53.80;;
33644;SDS011;19986;48.190;16.366;2023-04-21T00:30:27;59.13;;;54.97;;
33644;SDS011;19986;48.190;16.366;2023-04-21T00:32:53;56.25;;;52.30;;
33644;SDS011;19986;48.190;16.366;2023-04-21T00:35:20;56.00;;;52.25;;
33644;SDS011;19986;48.190;16.366;2023-04-21T00:37:45;57.67;;;53.85;;
33644;SDS011;19986;48.190;16.366;2023-04-21T00:40:11;55.70;;;51.78;;
33644;SDS011;19986;48.190;16.366;2023-04-21T00:42:37;56.75;;;52.90;;
33644;SDS011;19986;48.190;16.366;2023-04-21T00:45:03;55.83;;;51.47;;
33644;SDS011;19986;48.190;16.366;2023-04-21T00:47:30;57.78;;;53.72;;
33644;SDS011;19986;48.190;16.366;2023-04-21T00:49:56;58.05;;;53.78;;
33644;SDS011;19986;48.190;16.366;2023-04-21T00:52:22;56.33;;;52.15;;
33644;SDS011;19986;48.190;16.366;2023-04-21T00:54:49;57.45;;;53.22;;
33644;SDS011;19986;48.190;16.366;2023-04-21T00:57:15;56.22;;;52.08;;
33644;SDS011;19986;48.190;16.366;2023-04-21T00:59:41;56.13;;;52.08;;
33644;SDS011;19986;48.190;16.366;2023-04-21T01:02:07;56.17;;;52.42;;
33644;SDS011;19986;48.190;16.366;2023-04-21T01:04:33;55.88;;;52.10;;
33644;SDS011;19986;48.190;16.366;2023-04-21T01:07:04;58.30;;;54.38;;
33644;SDS011;19986;48.190;16.366;2023-04-21T01:09:32;55.55;;;51.70;;
33644;SDS011;19986;48.190;16.366;2023-04-21T01:11:59;55.65;;;51.78;;
33644;SDS011;19986;48.190;16.366;2023-04-21T01:14:29;53.78;;;49.97;;
33644;SDS011;19986;48.190;16.366;2023-04-21T01:16:55;54.58;;;50.85;;
33644;SDS011;19986;48.190;16.366;2023-04-21T01:19:22;55.55;;;51.85;;
33644;SDS011;19986;48.190;16.366;2023-04-21T01:21:49;56.28;;;52.47;;
33644;SDS011;19986;48.190;16.366;2023-04-21T01:24:18;56.38;;;52.63;;
33644;SDS011;19986;48.190;16.366;2023-04-21T01:26:44;55.97;;;52.20;;
33644;SDS011;19986;48.190;16.366;2023-04-21T01:29:14;55.92;;;52.00;;
33644;SDS011;19986;48.190;16.366;2023-04-21T01:31:41;57.53;;;53.63;;
33644;SDS011;19986;48.190;16.366;2023-04-21T01:34:07;55.80;;;51.50;;
33644;SDS011;19986;48.190;16.366;2023-04-21T01:36:34;53.85;;;50.25;;
33644;SDS011;19986;48.190;16.366;2023-04-21T01:39:00;59.20;;;55.00;;
33644;SDS011;19986;48.190;16.366;2023-04-21T01:41:27;55.58;;;51.63;;
33644;SDS011;19986;48.190;16.366;2023-04-21T01:43:54;56.22;;;52.08;;
33644;SDS011;19986;48.190;16.366;2023-04-21T01:46:19;56.60;;;52.80;;
33644;SDS011;19986;48.190;16.366;2023-04-21T01:48:45;56.55;;;52.50;;
33644;SDS011;19986;48.190;16.366;2023-04-21T01:51:11;55.72;;;51.88;;
33644;SDS011;19986;48.190;16.366;2023-04-21T01:53:38;56.05;;;52.22;;
33644;SDS011;19986;48.190;16.366;2023-04-21T01:56:04;57.45;;;53.38;;
33644;SDS011;19986;48.190;16.366;2023-04-21T01:58:30;54.08;;;50.28;;
33644;SDS011;19986;48.190;16.366;2023-04-21T02:00:55;56.97;;;52.88;;
33644;SDS011;19986;48.190;16.366;2023-04-21T02:03:22;57.42;;;53.60;;
33644;SDS011;19986;48.190;16.366;2023-04-21T02:05:49;54.53;;;50.55;;
33644;SDS011;19986;48.190;16.366;2023-04-21T02:08:15;59.10;;;54.83;;
33644;SDS011;19986;48.190;16.366;2023-04-21T02:10:41;56.95;;;53.15;;
33644;SDS011;19986;48.190;16.366;2023-04-21T02:13:07;57.97;;;54.08;;
33644;SDS011;19986;48.190;16.366;2023-04-21T02:15:33;59.63;;;55.40;;
33644;SDS011;19986;48.190;16.366;2023-04-21T02:18:01;57.85;;;53.58;;
33644;SDS011;19986;48.190;16.366;2023-04-21T02:20:27;57.30;;;53.22;;
33644;SDS011;19986;48.190;16.366;2023-04-21T02:22:53;57.33;;;53.22;;
33644;SDS011;19986;48.190;16.366;2023-04-21T02:25:19;58.50;;;54.30;;
33644;SDS011;19986;48.190;16.366;2023-04-21T02:27:45;57.35;;;53.28;;
33644;SDS011;19986;48.190;16.366;2023-04-21T02:30:11;58.50;;;53.97;;
33644;SDS011;19986;48.190;16.366;2023-04-21T02:32:37;57.42;;;53.13;;
33644;SDS011;19986;48.190;16.366;2023-04-21T02:35:03;57.15;;;52.83;;
33644;SDS011;19986;48.190;16.366;2023-04-21T02:37:30;58.92;;;54.55;;
33644;SDS011;19986;48.190;16.366;2023-04-21T02:39:55;59.03;;;54.53;;
33644;SDS011;19986;48.190;16.366;2023-04-21T02:42:21;59.92;;;55.72;;
33644;SDS011;19986;48.190;16.366;2023-04-21T02:44:48;59.00;;;54.47;;
33644;SDS011;19986;48.190;16.366;2023-04-21T02:47:15;61.03;;;56.42;;
33644;SDS011;19986;48.190;16.366;2023-04-21T02:49:41;56.90;;;52.30;;
33644;SDS011;19986;48.190;16.366;2023-04-21T02:52:08;56.10;;;52.05;;
33644;SDS011;19986;48.190;16.366;2023-04-21T02:54:35;55.67;;;51.67;;
33644;SDS011;19986;48.190;16.366;2023-04-21T02:57:01;59.53;;;55.22;;
33644;SDS011;19986;48.190;16.366;2023-04-21T02:59:28;59.63;;;55.45;;
33644;SDS011;19986;48.190;16.366;2023-04-21T03:01:55;59.10;;;54.95;;
33644;SDS011;19986;48.190;16.366;2023-04-21T03:04:20;58.97;;;54.67;;
33644;SDS011;19986;48.190;16.366;2023-04-21T03:06:48;56.55;;;52.40;;
33644;SDS011;19986;48.190;16.366;2023-04-21T03:09:15;57.88;;;53.17;;
33644;SDS011;19986;48.190;16.366;2023-04-21T03:11:41;59.65;;;55.15;;
33644;SDS011;19986;48.190;16.366;2023-04-21T03:14:06;59.47;;;55.08;;
33644;SDS011;19986;48.190;16.366;2023-04-21T03:16:32;58.03;;;53.10;;
33644;SDS011;19986;48.190;16.366;2023-04-21T03:18:59;56.55;;;52.25;;
33644;SDS011;19986;48.190;16.366;2023-04-21T03:21:26;58.35;;;53.90;;
33644;SDS011;19986;48.190;16.366;2023-04-21T03:23:52;56.47;;;52.33;;
33644;SDS011;19986;48.190;16.366;2023-04-21T03:26:19;56.65;;;52.45;;
33644;SDS011;19986;48.190;16.366;2023-04-21T03:28:44;57.92;;;53.63;;
33644;SDS011;19986;48.190;16.366;2023-04-21T03:31:11;53.72;;;49.92;;
33644;SDS011;19986;48.190;16.366;2023-04-21T03:33:37;55.67;;;51.88;;
33644;SDS011;19986;48.190;16.366;2023-04-21T03:36:03;54.28;;;50.65;;
33644;SDS011;19986;48.190;16.366;2023-04-21T03:38:30;56.67;;;52.53;;
33644;SDS011;19986;48.190;16.366;2023-04-21T03:40:56;55.60;;;51.85;;
33644;SDS011;19986;48.190;16.366;2023-04-21T03:43:23;57.53;;;53.25;;
33644;SDS011;19986;48.190;16.366;2023-04-21T03:45:49;55.90;;;52.03;;
33644;SDS011;19986;48.190;16.366;2023-04-21T03:48:15;55.17;;;51.28;;
33644;SDS011;19986;48.190;16.366;2023-04-21T03:50:41;59.47;;;55.55;;
33644;SDS011;19986;48.190;16.366;2023-04-21T03:53:07;55.35;;;51.17;;
33644;SDS011;19986;48.190;16.366;2023-04-21T03:55:33;55.38;;;51.15;;
33644;SDS011;19986;48.190;16.366;2023-04-21T03:58:00;56.88;;;52.97;;
33644;SDS011;19986;48.190;16.366;2023-04-21T04:00:26;56.83;;;52.53;;
33644;SDS011;19986;48.190;16.366;2023-04-21T04:02:53;58.50;;;54.33;;
33644;SDS011;19986;48.190;16.366;2023-04-21T04:05:18;58.05;;;53.95;;
33644;SDS011;19986;48.190;16.366;2023-04-21T04:07:45;55.35;;;51.42;;
33644;SDS011;19986;48.190;16.366;2023-04-21T04:10:11;55.90;;;51.83;;
33644;SDS011;19986;48.190;16.366;2023-04-21T04:12:37;59.22;;;54.92;;
33644;SDS011;19986;48.190;16.366;2023-04-21T04:15:03;54.25;;;50.03;;
33644;SDS011;19986;48.190;16.366;2023-04-21T04:17:30;56.33;;;52.17;;
33644;SDS011;19986;48.190;16.366;2023-04-21T04:19:56;59.10;;;54.90;;
33644;SDS011;19986;48.190;16.366;2023-04-21T04:22:22;58.17;;;54.15;;
33644;SDS011;19986;48.190;16.366;2023-04-21T04:24:48;56.13;;;52.13;;
33644;SDS011;19986;48.190;16.366;2023-04-21T04:27:14;57.72;;;53.55;;
33644;SDS011;19986;48.190;16.366;2023-04-21T04:29:39;59.30;;;55.22;;
33644;SDS011;19986;48.190;16.366;2023-04-21T04:32:06;59.42;;;55.42;;
33644;SDS011;19986;48.190;16.366;2023-04-21T04:34:35;58.00;;;53.83;;
33644;SDS011;19986;48.190;16.366;2023-04-21T04:37:04;59.70;;;55.47;;
33644;SDS011;19986;48.190;16.366;2023-04-21T04:39:30;58.25;;;54.03;;
33644;SDS011;19986;48.190;16.366;2023-04-21T04:41:56;59.03;;;54.30;;
33644;SDS011;19986;48.190;16.366;2023-04-21T04:44:23;57.83;;;53.72;;
33644;SDS011;19986;48.190;16.366;2023-04-21T04:46:50;59.88;;;55.40;;
33644;SDS011;19986;48.190;16.366;2023-04-21T04:49:16;55.45;;;51.22;;
33644;SDS011;19986;48.190;16.366;2023-04-21T04:51:42;59.08;;;54.70;;
33644;SDS011;19986;48.190;16.366;2023-04-21T04:54:08;58.08;;;53.72;;
33644;SDS011;19986;48.190;16.366;2023-04-21T04:56:34;55.97;;;52.08;;
33644;SDS011;19986;48.190;16.366;2023-04-21T04:59:04;57.60;;;53.35;;
33644;SDS011;19986;48.190;16.366;2023-04-21T05:01:30;57.10;;;52.72;;
33644;SDS011;19986;48.190;16.366;2023-04-21T05:03:56;58.28;;;54.15;;
33644;SDS011;19986;48.190;16.366;2023-04-21T05:06:22;59.15;;;54.67;;
33644;SDS011;19986;48.190;16.366;2023-04-21T05:08:48;58.55;;;54.20;;
33644;SDS011;19986;48.190;16.366;2023-04-21T05:11:14;59.00;;;54.80;;
33644;SDS011;19986;48.190;16.366;2023-04-21T05:13:40;57.33;;;53.33;;
33644;SDS011;19986;48.190;16.366;2023-04-21T05:16:06;59.22;;;54.67;;
33644;SDS011;19986;48.190;16.366;2023-04-21T05:18:33;60.58;;;56.22;;
33644;SDS011;19986;48.190;16.366;2023-04-21T05:20:59;63.38;;;58.78;;
33644;SDS011;19986;48.190;16.366;2023-04-21T05:23:25;58.75;;;54.33;;
33644;SDS011;19986;48.190;16.366;2023-04-21T05:25:51;62.40;;;57.70;;
33644;SDS011;19986;48.190;16.366;2023-04-21T05:28:17;61.20;;;56.35;;
33644;SDS011;19986;48.190;16.366;2023-04-21T05:30:43;62.38;;;57.28;;
33644;SDS011;19986;48.190;16.366;2023-04-21T05:33:08;64.78;;;59.67;;
33644;SDS011;19986;48.190;16.366;2023-04-21T05:35:34;62.75;;;58.03;;
33644;SDS011;19986;48.190;16.366;2023-04-21T05:38:01;60.95;;;56.15;;
33644;SDS011;19986;48.190;16.366;2023-04-21T05:40:27;59.92;;;55.40;;
33644;SDS011;19986;48.190;16.366;2023-04-21T05:42:52;63.10;;;58.00;;
33644;SDS011;19986;48.190;16.366;2023-04-21T05:45:18;63.42;;;58.38;;
33644;SDS011;19986;48.190;16.366;2023-04-21T05:47:44;62.88;;;58.05;;
33644;SDS011;19986;48.190;16.366;2023-04-21T05:50:10;65.28;;;60.08;;
33644;SDS011;19986;48.190;16.366;2023-04-21T05:52:36;63.58;;;58.72;;
33644;SDS011;19986;48.190;16.366;2023-04-21T05:55:02;66.43;;;61.13;;
33644;SDS011;19986;48.190;16.366;2023-04-21T05:57:28;66.18;;;61.13;;
33644;SDS011;19986;48.190;16.366;2023-04-21T05:59:54;80.93;;;73.90;;
33644;SDS011;19986;48.190;16.366;2023-04-21T06:02:20;68.10;;;62.88;;
33644;SDS011;19986;48.190;16.366;2023-04-21T06:04:47;63.85;;;58.78;;
33644;SDS011;19986;48.190;16.366;2023-04-21T06:07:13;64.45;;;59.45;;
33644;SDS011;19986;48.190;16.366;2023-04-21T06:09:42;64.55;;;59.55;;
33644;SDS011;19986;48.190;16.366;2023-04-21T06:12:07;61.45;;;56.72;;
33644;SDS011;19986;48.190;16.366;2023-04-21T06:14:33;58.30;;;53.45;;
33644;SDS011;19986;48.190;16.366;2023-04-21T06:16:59;58.40;;;53.90;;
33644;SDS011;19986;48.190;16.366;2023-04-21T06:19:25;53.58;;;49.63;;
33644;SDS011;19986;48.190;16.366;2023-04-21T06:21:51;57.05;;;52.40;;
33644;SDS011;19986;48.190;16.366;2023-04-21T06:24:16;57.53;;;53.13;;
33644;SDS011;19986;48.190;16.366;2023-04-21T06:26:50;56.10;;;51.83;;
33644;SDS011;19986;48.190;16.366;2023-04-21T06:29:16;56.45;;;52.35;;
33644;SDS011;19986;48.190;16.366;2023-04-21T06:31:43;58.53;;;53.42;;
33644;SDS011;19986;48.190;16.366;2023-04-21T06:34:09;57.25;;;53.10;;
33644;SDS011;19986;48.190;16.366;2023-04-21T06:36:38;53.17;;;49.53;;
33644;SDS011;19986;48.190;16.366;2023-04-21T06:39:03;56.15;;;51.88;;
33644;SDS011;19986;48.190;16.366;2023-04-21T06:41:29;55.03;;;50.70;;
33644;SDS011;19986;48.190;16.366;2023-04-21T06:43:58;52.50;;;48.67;;
33644;SDS011;19986;48.190;16.366;2023-04-21T06:46:24;51.25;;;47.72;;
33644;SDS011;19986;48.190;16.366;2023-04-21T06:48:49;50.83;;;46.63;;
33644;SDS011;19986;48.190;16.366;2023-04-21T06:51:15;47.20;;;43.90;;
33644;SDS011;19986;48.190;16.366;2023-04-21T06:53:41;48.88;;;45.67;;
33644;SDS011;19986;48.190;16.366;2023-04-21T06:56:07;46.88;;;43.53;;
33644;SDS011;19986;48.190;16.366;2023-04-21T06:58:33;46.50;;;43.38;;
33644;SDS011;19986;48.190;16.366;2023-04-21T07:00:59;46.75;;;43.75;;
33644;SDS011;19986;48.190;16.366;2023-04-21T07:03:25;47.70;;;44.15;;
33644;SDS011;19986;48.190;16.366;2023-04-21T07:05:51;47.63;;;44.50;;
33644;SDS011;19986;48.190;16.366;2023-04-21T07:08:17;47.28;;;44.22;;
33644;SDS011;19986;48.190;16.366;2023-04-21T07:10:42;49.17;;;45.70;;
33644;SDS011;19986;48.190;16.366;2023-04-21T07:13:08;51.03;;;47.70;;
33644;SDS011;19986;48.190;16.366;2023-04-21T07:15:34;47.72;;;44.53;;
33644;SDS011;19986;48.190;16.366;2023-04-21T07:18:00;51.40;;;47.58;;
33644;SDS011;19986;48.190;16.366;2023-04-21T07:20:26;47.47;;;44.30;;
33644;SDS011;19986;48.190;16.366;2023-04-21T07:22:52;51.15;;;47.33;;
33644;SDS011;19986;48.190;16.366;2023-04-21T07:25:18;48.22;;;44.35;;
33644;SDS011;19986;48.190;16.366;2023-04-21T07:27:43;49.03;;;45.50;;
33644;SDS011;19986;48.190;16.366;2023-04-21T07:30:10;47.17;;;43.60;;
33644;SDS011;19986;48.190;16.366;2023-04-21T07:32:36;46.25;;;42.97;;
33644;SDS011;19986;48.190;16.366;2023-04-21T07:35:03;46.85;;;43.78;;
33644;SDS011;19986;48.190;16.366;2023-04-21T07:37:30;50.08;;;46.53;;
33644;SDS011;19986;48.190;16.366;2023-04-21T07:39:55;46.33;;;42.83;;
33644;SDS011;19986;48.190;16.366;2023-04-21T07:42:21;45.78;;;42.65;;
33644;SDS011;19986;48.190;16.366;2023-04-21T07:44:47;47.15;;;43.75;;
33644;SDS011;19986;48.190;16.366;2023-04-21T07:47:13;43.72;;;40.80;;
33644;SDS011;19986;48.190;16.366;2023-04-21T07:49:39;44.45;;;41.65;;
33644;SDS011;19986;48.190;16.366;2023-04-21T07:52:05;47.63;;;43.95;;
33644;SDS011;19986;48.190;16.366;2023-04-21T07:54:31;45.55;;;42.55;;
33644;SDS011;19986;48.190;16.366;2023-04-21T07:56:56;45.08;;;41.92;;
33644;SDS011;19986;48.190;16.366;2023-04-21T07:59:22;46.45;;;43.22;;
33644;SDS011;19986;48.190;16.366;2023-04-21T08:01:48;44.38;;;41.55;;
33644;SDS011;19986;48.190;16.366;2023-04-21T08:04:16;45.05;;;41.53;;
33644;SDS011;19986;48.190;16.366;2023-04-21T08:06:42;45.33;;;42.33;;
33644;SDS011;19986;48.190;16.366;2023-04-21T08:09:08;45.40;;;42.22;;
33644;SDS011;19986;48.190;16.366;2023-04-21T08:11:34;43.88;;;40.58;;
33644;SDS011;19986;48.190;16.366;2023-04-21T08:14:00;46.65;;;43.58;;
33644;SDS011;19986;48.190;16.366;2023-04-21T08:16:28;45.92;;;42.47;;
33644;SDS011;19986;48.190;16.366;2023-04-21T08:18:53;45.30;;;42.10;;
33644;SDS011;19986;48.190;16.366;2023-04-21T08:21:19;48.00;;;44.45;;
33644;SDS011;19986;48.190;16.366;2023-04-21T08:23:45;45.75;;;42.72;;
33644;SDS011;19986;48.190;16.366;2023-04-21T08:26:11;45.00;;;42.00;;
33644;SDS011;19986;48.190;16.366;2023-04-21T08:28:37;44.72;;;41.65;;
33644;SDS011;19986;48.190;16.366;2023-04-21T08:31:03;42.55;;;39.58;;
33644;SDS011;19986;48.190;16.366;2023-04-21T08:33:29;44.15;;;40.95;;
33644;SDS011;19986;48.190;16.366;2023-04-21T08:35:55;42.50;;;39.00;;
33644;SDS011;19986;48.190;16.366;2023-04-21T08:38:21;41.45;;;38.40;;
33644;SDS011;19986;48.190;16.366;2023-04-21T08:40:46;41.83;;;38.95;;
33644;SDS011;19986;48.190;16.366;2023-04-21T08:43:13;42.22;;;39.50;;
33644;SDS011;19986;48.190;16.366;2023-04-21T08:45:39;41.40;;;39.05;;
33644;SDS011;19986;48.190;16.366;2023-04-21T08:48:06;41.70;;;38.40;;
33644;SDS011;19986;48.190;16.366;2023-04-21T08:50:37;39.50;;;36.95;;
33644;SDS011;19986;48.190;16.366;2023-04-21T08:53:04;42.38;;;39.53;;
33644;SDS011;19986;48.190;16.366;2023-04-21T08:55:31;40.08;;;37.45;;
33644;SDS011;19986;48.190;16.366;2023-04-21T08:57:57;40.33;;;37.70;;
33644;SDS011;19986;48.190;16.366;2023-04-21T09:00:23;40.83;;;37.80;;
33644;SDS011;19986;48.190;16.366;2023-04-21T09:02:54;40.80;;;38.03;;
33644;SDS011;19986;48.190;16.366;2023-04-21T09:05:23;39.15;;;36.42;;
33644;SDS011;19986;48.190;16.366;2023-04-21T09:07:50;42.85;;;40.05;;
33644;SDS011;19986;48.190;16.366;2023-04-21T09:10:22;39.50;;;36.88;;
33644;SDS011;19986;48.190;16.366;2023-04-21T09:12:53;40.00;;;37.03;;
33644;SDS011;19986;48.190;16.366;2023-04-21T09:15:20;41.13;;;38.28;;
33644;SDS011;19986;48.190;16.366;2023-04-21T09:17:53;40.83;;;37.95;;
33644;SDS011;19986;48.190;16.366;2023-04-21T09:20:21;40.67;;;38.05;;
33644;SDS011;19986;48.190;16.366;2023-04-21T09:22:48;42.80;;;39.47;;
33644;SDS011;19986;48.190;16.366;2023-04-21T09:25:16;40.90;;;37.58;;
33644;SDS011;19986;48.190;16.366;2023-04-21T09:27:45;39.40;;;36.40;;
33644;SDS011;19986;48.190;16.366;2023-04-21T09:30:12;39.10;;;35.97;;
33644;SDS011;19986;48.190;16.366;2023-04-21T09:32:39;41.40;;;38.58;;
33644;SDS011;19986;48.190;16.366;2023-04-21T09:35:09;38.40;;;35.78;;
33644;SDS011;19986;48.190;16.366;2023-04-21T09:37:35;39.53;;;36.88;;
33644;SDS011;19986;48.190;16.366;2023-04-21T09:40:02;39.33;;;36.78;;
33644;SDS011;19986;48.190;16.366;2023-04-21T09:42:28;44.85;;;41.33;;
33644;SDS011;19986;48.190;16.366;2023-04-21T09:44:57;37.85;;;35.10;;
33644;SDS011;19986;48.190;16.366;2023-04-21T09:47:23;37.00;;;34.83;;
33644;SDS011;19986;48.190;16.366;2023-04-21T09:49:51;38.45;;;35.55;;
33644;SDS011;19986;48.190;16.366;2023-04-21T09:52:20;36.65;;;34.50;;
33644;SDS011;19986;48.190;16.366;2023-04-21T09:54:48;38.13;;;35.58;;
33644;SDS011;19986;48.190;16.366;2023-04-21T09:57:19;36.97;;;34.53;;
33644;SDS011;19986;48.190;16.366;2023-04-21T09:59:50;38.70;;;35.63;;
33644;SDS011;19986;48.190;16.366;2023-04-21T10:02:23;36.80;;;34.22;;
33644;SDS011;19986;48.190;16.366;2023-04-21T10:04:51;37.40;;;34.92;;
33644;SDS011;19986;48.190;16.366;2023-04-21T10:07:17;36.80;;;34.20;;
33644;SDS011;19986;48.190;16.366;2023-04-21T10:09:55;38.40;;;35.95;;
33644;SDS011;19986;48.190;16.366;2023-04-21T10:12:23;38.78;;;36.38;;
33644;SDS011;19986;48.190;16.366;2023-04-21T10:14:51;35.97;;;33.47;;
33644;SDS011;19986;48.190;16.366;2023-04-21T10:17:19;34.75;;;32.30;;
33644;SDS011;19986;48.190;16.366;2023-04-21T10:19:49;34.72;;;32.08;;
33644;SDS011;19986;48.190;16.366;2023-04-21T10:22:34;33.80;;;31.58;;
33644;SDS011;19986;48.190;16.366;2023-04-21T10:25:03;31.48;;;29.35;;
33644;SDS011;19986;48.190;16.366;2023-04-21T10:27:33;32.22;;;29.65;;
33644;SDS011;19986;48.190;16.366;2023-04-21T10:30:18;32.10;;;29.70;;
33644;SDS011;19986;48.190;16.366;2023-04-21T10:33:03;32.22;;;30.13;;
33644;SDS011;19986;48.190;16.366;2023-04-21T10:43:59;33.53;;;31.27;;
33644;SDS011;19986;48.190;16.366;2023-04-21T10:46:32;33.25;;;30.98;;
33644;SDS011;19986;48.190;16.366;2023-04-21T10:49:21;32.67;;;30.02;;
33644;SDS011;19986;48.190;16.366;2023-04-21T10:54:22;35.10;;;32.25;;
33644;SDS011;19986;48.190;16.366;2023-04-21T10:56:50;32.88;;;30.42;;
33644;SDS011;19986;48.190;16.366;2023-04-21T10:59:17;33.35;;;31.20;;
33644;SDS011;19986;48.190;16.366;2023-04-21T11:01:44;34.13;;;31.88;;
33644;SDS011;19986;48.190;16.366;2023-04-21T11:04:13;34.42;;;31.83;;
33644;SDS011;19986;48.190;16.366;2023-04-21T11:06:39;35.08;;;32.67;;
33644;SDS011;19986;48.190;16.366;2023-04-21T11:09:06;32.47;;;30.23;;
33644;SDS011;19986;48.190;16.366;2023-04-21T11:11:31;31.92;;;29.73;;
33644;SDS011;19986;48.190;16.366;2023-04-21T11:14:01;33.65;;;31.13;;
33644;SDS011;19986;48.190;16.366;2023-04-21T11:16:28;32.88;;;30.65;;
33644;SDS011;19986;48.190;16.366;2023-04-21T11:18:55;32.92;;;30.52;;
33644;SDS011;19986;48.190;16.366;2023-04-21T11:21:21;33.38;;;30.85;;
33644;SDS011;19986;48.190;16.366;2023-04-21T11:23:49;32.92;;;30.73;;
33644;SDS011;19986;48.190;16.366;2023-04-21T11:26:17;31.83;;;29.33;;
33644;SDS011;19986;48.190;16.366;2023-04-21T11:28:53;33.38;;;31.17;;
33644;SDS011;19986;48.190;16.366;2023-04-21T11:31:19;36.53;;;33.53;;
33644;SDS011;19986;48.190;16.366;2023-04-21T11:33:48;34.40;;;32.05;;
33644;SDS011;19986;48.190;16.366;2023-04-21T11:36:14;31.98;;;29.50;;
33644;SDS011;19986;48.190;16.366;2023-04-21T11:38:40;32.63;;;30.50;;
33644;SDS011;19986;48.190;16.366;2023-04-21T11:41:06;32.63;;;30.55;;
33644;SDS011;19986;48.190;16.366;2023-04-21T11:43:35;32.80;;;30.42;;
33644;SDS011;19986;48.190;16.366;2023-04-21T11:46:15;34.00;;;30.77;;
33644;SDS011;19986;48.190;16.366;2023-04-21T11:48:46;34.00;;;31.42;;
33644;SDS011;19986;48.190;16.366;2023-04-21T11:51:31;33.15;;;31.15;;
33644;SDS011;19986;48.190;16.366;2023-04-21T11:54:00;33.65;;;31.13;;
33644;SDS011;19986;48.190;16.366;2023-04-21T11:56:28;31.58;;;29.38;;
33644;SDS011;19986;48.190;16.366;2023-04-21T11:58:58;33.22;;;31.15;;
33644;SDS011;19986;48.190;16.366;2023-04-21T12:01:25;30.42;;;28.42;;
33644;SDS011;19986;48.190;16.366;2023-04-21T12:03:54;33.88;;;31.27;;
33644;SDS011;19986;48.190;16.366;2023-04-21T12:06:24;32.22;;;29.88;;
33644;SDS011;19986;48.190;16.366;2023-04-21T12:08:54;32.38;;;30.33;;
33644;SDS011;19986;48.190;16.366;2023-04-21T12:11:27;32.03;;;29.17;;
33644;SDS011;19986;48.190;16.366;2023-04-21T12:13:57;32.20;;;30.20;;
33644;SDS011;19986;48.190;16.366;2023-04-21T12:16:24;31.98;;;29.80;;
33644;SDS011;19986;48.190;16.366;2023-04-21T12:18:51;32.50;;;30.35;;
33644;SDS011;19986;48.190;16.366;2023-04-21T12:21:18;33.03;;;30.92;;
33644;SDS011;19986;48.190;16.366;2023-04-21T12:23:44;33.33;;;30.98;;
33644;SDS011;19986;48.190;16.366;2023-04-21T12:26:10;33.83;;;31.17;;
33644;SDS011;19986;48.190;16.366;2023-04-21T12:28:37;31.85;;;29.85;;
33644;SDS011;19986;48.190;16.366;2023-04-21T12:31:03;32.13;;;29.48;;
33644;SDS011;19986;48.190;16.366;2023-04-21T12:33:29;33.03;;;30.80;;
33644;SDS011;19986;48.190;16.366;2023-04-21T12:35:55;34.33;;;32.10;;
33644;SDS011;19986;48.190;16.366;2023-04-21T12:38:21;32.97;;;30.58;;
33644;SDS011;19986;48.190;16.366;2023-04-21T12:40:47;36.70;;;34.25;;
33644;SDS011;19986;48.190;16.366;2023-04-21T12:43:13;34.13;;;31.70;;
33644;SDS011;19986;48.190;16.366;2023-04-21T12:45:39;33.58;;;31.23;;
33644;SDS011;19986;48.190;16.366;2023-04-21T12:48:05;33.42;;;31.33;;
33644;SDS011;19986;48.190;16.366;2023-04-21T12:50:31;32.50;;;30.15;;
33644;SDS011;19986;48.190;16.366;2023-04-21T12:52:57;33.42;;;31.13;;
33644;SDS011;19986;48.190;16.366;2023-04-21T12:55:23;33.17;;;30.95;;
33644;SDS011;19986;48.190;16.366;2023-04-21T12:57:49;34.33;;;31.85;;
33644;SDS011;19986;48.190;16.366;2023-04-21T13:00:17;34.58;;;32.25;;
33644;SDS011;19986;48.190;16.366;2023-04-21T13:02:43;33.60;;;31.27;;
33644;SDS011;19986;48.190;16.366;2023-04-21T13:05:09;35.17;;;32.67;;
33644;SDS011;19986;48.190;16.366;2023-04-21T13:07:37;34.63;;;32.17;;
33644;SDS011;19986;48.190;16.366;2023-04-21T13:10:04;33.78;;;31.50;;
33644;SDS011;19986;48.190;16.366;2023-04-21T13:12:31;34.13;;;31.90;;
33644;SDS011;19986;48.190;16.366;2023-04-21T13:14:57;32.42;;;30.25;;
33644;SDS011;19986;48.190;16.366;2023-04-21T13:17:23;33.85;;;31.52;;
33644;SDS011;19986;48.190;16.366;2023-04-21T13:19:49;32.97;;;30.95;;
33644;SDS011;19986;48.190;16.366;2023-04-21T13:22:15;33.17;;;30.67;;
33644;SDS011;19986;48.190;16.366;2023-04-21T13:24:41;34.53;;;32.17;;
33644;SDS011;19986;48.190;16.366;2023-04-21T13:27:07;34.55;;;32.30;;
33644;SDS011;19986;48.190;16.366;2023-04-21T13:29:33;34.15;;;31.58;;
33644;SDS011;19986;48.190;16.366;2023-04-21T13:32:00;33.97;;;31.52;;
33644;SDS011;19986;48.190;16.366;2023-04-21T13:34:28;33.58;;;31.58;;
33644;SDS011;19986;48.190;16.366;2023-04-21T13:36:54;36.90;;;34.47;;
33644;SDS011;19986;48.190;16.366;2023-04-21T13:39:20;34.72;;;32.28;;
33644;SDS011;19986;48.190;16.366;2023-04-21T13:41:46;35.53;;;33.13;;
33644;SDS011;19986;48.190;16.366;2023-04-21T13:44:13;34.40;;;32.10;;
33644;SDS011;19986;48.190;16.366;2023-04-21T13:46:39;36.13;;;33.30;;
33644;SDS011;19986;48.190;16.366;2023-04-21T13:49:04;35.60;;;33.28;;
33644;SDS011;19986;48.190;16.366;2023-04-21T13:51:33;37.42;;;34.90;;
33644;SDS011;19986;48.190;16.366;2023-04-21T13:53:59;34.10;;;31.60;;
33644;SDS011;19986;48.190;16.366;2023-04-21T13:56:25;35.88;;;33.65;;
33644;SDS011;19986;48.190;16.366;2023-04-21T13:58:51;36.10;;;33.65;;
33644;SDS011;19986;48.190;16.366;2023-04-21T14:01:19;33.22;;;30.73;;
33644;SDS011;19986;48.190;16.366;2023-04-21T14:03:45;36.25;;;33.90;;
33644;SDS011;19986;48.190;16.366;2023-04-21T14:06:11;37.50;;;34.60;;
33644;SDS011;19986;48.190;16.366;2023-04-21T14:08:37;35.67;;;33.42;;
33644;SDS011;19986;48.190;16.366;2023-04-21T14:11:03;33.92;;;31.80;;
33644;SDS011;19986;48.190;16.366;2023-04-21T14:13:30;34.97;;;32.63;;
33644;SDS011;19986;48.190;16.366;2023-04-21T14:15:56;34.47;;;31.88;;
33644;SDS011;19986;48.190;16.366;2023-04-21T14:18:22;32.58;;;30.70;;